sensor_id;sensor_type;location;lat;lon;timestamp;P1;durP1;ratioP1;P2;durP2;ratioP2
25073;SDS011;13066;52.042;5.648;2023-04-03T00:00:58;3.65;;;1.90;;
25073;SDS011;13066;52.042;5.648;2023-04-03T00:03:25;3.03;;;1.75;;
25073;SDS011;13066;52.042;5.648;2023-04-03T00:05:53;7.03;;;2.13;;
25073;SDS011;13066;52.042;5.648;2023-04-03T00:08:23;6.50;;;2.15;;
25073;SDS011;13066;52.042;5.648;2023-04-03T00:10:51;3.80;;;2.00;;
25073;SDS011;13066;52.042;5.648;2023-04-03T00:13:19;5.05;;;2.08;;
25073;SDS011;13066;52.042;5.648;2023-04-03T00:15:47;4.43;;;1.95;;
25073;SDS011;13066;52.042;5.648;2023-04-03T00:18:15;3.72;;;1.88;;
25073;SDS011;13066;52.042;5.648;2023-04-03T00:20:43;4.72;;;2.10;;
25073;SDS011;13066;52.042;5.648;2023-04-03T00:23:11;6.20;;;2.00;;
25073;SDS011;13066;52.042;5.648;2023-04-03T00:25:40;3.17;;;1.63;;
25073;SDS011;13066;52.042;5.648;2023-04-03T00:28:08;4.30;;;1.70;;
25073;SDS011;13066;52.042;5.648;2023-04-03T00:30:36;4.55;;;2.10;;
25073;SDS011;13066;52.042;5.648;2023-04-03T00:33:05;5.25;;;1.85;;
25073;SDS011;13066;52.042;5.648;2023-04-03T00:35:33;4.05;;;1.58;;
25073;SDS011;13066;52.042;5.648;2023-04-03T00:38:02;3.55;;;1.92;;
25073;SDS011;13066;52.042;5.648;2023-04-03T00:40:33;4.78;;;1.70;;
25073;SDS011;13066;52.042;5.648;2023-04-03T00:43:09;4.57;;;1.88;;
25073;SDS011;13066;52.042;5.648;2023-04-03T00:45:39;4.72;;;2.08;;
25073;SDS011;13066;52.042;5.648;2023-04-03T00:48:10;4.93;;;1.85;;
25073;SDS011;13066;52.042;5.648;2023-04-03T00:50:41;4.82;;;2.17;;
25073;SDS011;13066;52.042;5.648;2023-04-03T00:53:11;4.90;;;2.13;;
25073;SDS011;13066;52.042;5.648;2023-04-03T00:55:40;5.03;;;2.38;;
25073;SDS011;13066;52.042;5.648;2023-04-03T00:58:10;4.30;;;1.75;;
25073;SDS011;13066;52.042;5.648;2023-04-03T01:00:40;2.60;;;1.65;;
25073;SDS011;13066;52.042;5.648;2023-04-03T01:03:10;4.78;;;1.77;;
25073;SDS011;13066;52.042;5.648;2023-04-03T01:05:39;3.85;;;1.80;;
25073;SDS011;13066;52.042;5.648;2023-04-03T01:08:07;5.50;;;1.52;;
25073;SDS011;13066;52.042;5.648;2023-04-03T01:10:35;7.28;;;1.95;;
25073;SDS011;13066;52.042;5.648;2023-04-03T01:13:18;5.43;;;1.90;;
25073;SDS011;13066;52.042;5.648;2023-04-03T01:15:48;6.25;;;1.52;;
25073;SDS011;13066;52.042;5.648;2023-04-03T01:18:16;6.22;;;1.88;;
25073;SDS011;13066;52.042;5.648;2023-04-03T01:20:50;4.43;;;1.77;;
25073;SDS011;13066;52.042;5.648;2023-04-03T01:23:48;3.22;;;1.77;;
25073;SDS011;13066;52.042;5.648;2023-04-03T01:26:32;4.47;;;1.73;;
25073;SDS011;13066;52.042;5.648;2023-04-03T01:29:03;7.35;;;1.77;;
25073;SDS011;13066;52.042;5.648;2023-04-03T01:31:39;3.60;;;1.80;;
25073;SDS011;13066;52.042;5.648;2023-04-03T01:34:15;4.35;;;1.90;;
25073;SDS011;13066;52.042;5.648;2023-04-03T01:36:43;5.72;;;2.10;;
25073;SDS011;13066;52.042;5.648;2023-04-03T01:39:11;5.47;;;1.90;;
25073;SDS011;13066;52.042;5.648;2023-04-03T01:41:40;8.10;;;1.85;;
25073;SDS011;13066;52.042;5.648;2023-04-03T01:44:13;5.47;;;1.77;;
25073;SDS011;13066;52.042;5.648;2023-04-03T01:46:43;4.63;;;1.90;;
25073;SDS011;13066;52.042;5.648;2023-04-03T01:49:11;4.35;;;1.77;;
25073;SDS011;13066;52.042;5.648;2023-04-03T01:51:39;5.20;;;1.85;;
25073;SDS011;13066;52.042;5.648;2023-04-03T01:54:07;4.07;;;1.70;;
25073;SDS011;13066;52.042;5.648;2023-04-03T01:56:35;4.82;;;1.92;;
25073;SDS011;13066;52.042;5.648;2023-04-03T01:59:03;6.40;;;1.85;;
25073;SDS011;13066;52.042;5.648;2023-04-03T02:01:31;3.88;;;1.98;;
25073;SDS011;13066;52.042;5.648;2023-04-03T02:04:01;6.30;;;2.00;;
25073;SDS011;13066;52.042;5.648;2023-04-03T02:06:29;7.57;;;2.20;;
25073;SDS011;13066;52.042;5.648;2023-04-03T02:08:57;4.75;;;2.20;;
25073;SDS011;13066;52.042;5.648;2023-04-03T02:11:25;7.70;;;2.15;;
25073;SDS011;13066;52.042;5.648;2023-04-03T02:13:52;5.35;;;1.90;;
25073;SDS011;13066;52.042;5.648;2023-04-03T02:16:20;6.28;;;2.10;;
25073;SDS011;13066;52.042;5.648;2023-04-03T02:18:48;5.85;;;2.05;;
25073;SDS011;13066;52.042;5.648;2023-04-03T02:21:18;5.97;;;1.90;;
25073;SDS011;13066;52.042;5.648;2023-04-03T02:23:46;4.78;;;2.05;;
25073;SDS011;13066;52.042;5.648;2023-04-03T02:26:15;5.40;;;1.88;;
25073;SDS011;13066;52.042;5.648;2023-04-03T02:28:44;7.00;;;1.80;;
25073;SDS011;13066;52.042;5.648;2023-04-03T02:31:12;5.20;;;1.85;;
25073;SDS011;13066;52.042;5.648;2023-04-03T02:33:42;6.47;;;2.05;;
25073;SDS011;13066;52.042;5.648;2023-04-03T02:36:12;7.13;;;2.05;;
25073;SDS011;13066;52.042;5.648;2023-04-03T02:38:44;6.18;;;1.75;;
25073;SDS011;13066;52.042;5.648;2023-04-03T02:41:13;8.02;;;2.15;;
25073;SDS011;13066;52.042;5.648;2023-04-03T02:43:40;4.28;;;2.10;;
25073;SDS011;13066;52.042;5.648;2023-04-03T02:46:08;2.70;;;1.70;;
25073;SDS011;13066;52.042;5.648;2023-04-03T02:48:36;3.97;;;1.88;;
25073;SDS011;13066;52.042;5.648;2023-04-03T02:51:05;3.83;;;1.77;;
25073;SDS011;13066;52.042;5.648;2023-04-03T02:53:33;7.28;;;2.10;;
25073;SDS011;13066;52.042;5.648;2023-04-03T02:56:09;5.85;;;2.17;;
25073;SDS011;13066;52.042;5.648;2023-04-03T02:58:37;5.72;;;2.22;;
25073;SDS011;13066;52.042;5.648;2023-04-03T03:01:06;5.70;;;2.03;;
25073;SDS011;13066;52.042;5.648;2023-04-03T03:03:34;6.60;;;2.10;;
25073;SDS011;13066;52.042;5.648;2023-04-03T03:06:03;4.35;;;2.05;;
25073;SDS011;13066;52.042;5.648;2023-04-03T03:08:32;7.07;;;2.20;;
25073;SDS011;13066;52.042;5.648;2023-04-03T03:11:00;8.13;;;2.13;;
25073;SDS011;13066;52.042;5.648;2023-04-03T03:13:29;7.68;;;2.03;;
25073;SDS011;13066;52.042;5.648;2023-04-03T03:15:57;8.55;;;2.60;;
25073;SDS011;13066;52.042;5.648;2023-04-03T03:18:25;5.40;;;2.15;;
25073;SDS011;13066;52.042;5.648;2023-04-03T03:20:54;7.07;;;2.03;;
25073;SDS011;13066;52.042;5.648;2023-04-03T03:23:23;6.68;;;2.42;;
25073;SDS011;13066;52.042;5.648;2023-04-03T03:25:54;9.00;;;2.70;;
25073;SDS011;13066;52.042;5.648;2023-04-03T03:28:22;11.85;;;1.85;;
25073;SDS011;13066;52.042;5.648;2023-04-03T03:30:52;8.10;;;2.80;;
25073;SDS011;13066;52.042;5.648;2023-04-03T03:33:21;7.72;;;2.25;;
25073;SDS011;13066;52.042;5.648;2023-04-03T03:35:48;6.63;;;1.88;;
25073;SDS011;13066;52.042;5.648;2023-04-03T03:38:16;6.07;;;2.00;;
25073;SDS011;13066;52.042;5.648;2023-04-03T03:40:44;3.78;;;1.92;;
25073;SDS011;13066;52.042;5.648;2023-04-03T03:43:16;12.27;;;2.28;;
25073;SDS011;13066;52.042;5.648;2023-04-03T03:45:46;7.38;;;2.47;;
25073;SDS011;13066;52.042;5.648;2023-04-03T03:48:19;3.42;;;2.15;;
25073;SDS011;13066;52.042;5.648;2023-04-03T03:50:47;9.70;;;2.40;;
25073;SDS011;13066;52.042;5.648;2023-04-03T03:53:18;7.07;;;2.50;;
25073;SDS011;13066;52.042;5.648;2023-04-03T03:55:48;9.77;;;2.70;;
25073;SDS011;13066;52.042;5.648;2023-04-03T03:58:19;7.57;;;2.22;;
25073;SDS011;13066;52.042;5.648;2023-04-03T04:00:47;12.45;;;2.67;;
25073;SDS011;13066;52.042;5.648;2023-04-03T04:03:15;6.85;;;2.25;;
25073;SDS011;13066;52.042;5.648;2023-04-03T04:05:47;7.65;;;2.20;;
25073;SDS011;13066;52.042;5.648;2023-04-03T04:08:15;6.85;;;2.20;;
25073;SDS011;13066;52.042;5.648;2023-04-03T04:10:45;7.65;;;2.70;;
25073;SDS011;13066;52.042;5.648;2023-04-03T04:13:15;5.32;;;2.08;;
25073;SDS011;13066;52.042;5.648;2023-04-03T04:15:44;4.00;;;2.00;;
25073;SDS011;13066;52.042;5.648;2023-04-03T04:18:13;5.80;;;2.10;;
25073;SDS011;13066;52.042;5.648;2023-04-03T04:20:44;7.18;;;2.65;;
25073;SDS011;13066;52.042;5.648;2023-04-03T04:23:16;6.50;;;2.20;;
25073;SDS011;13066;52.042;5.648;2023-04-03T04:25:45;2.90;;;1.85;;
25073;SDS011;13066;52.042;5.648;2023-04-03T04:28:13;6.82;;;2.30;;
25073;SDS011;13066;52.042;5.648;2023-04-03T04:30:42;5.60;;;2.20;;
25073;SDS011;13066;52.042;5.648;2023-04-03T04:33:12;8.75;;;2.67;;
25073;SDS011;13066;52.042;5.648;2023-04-03T04:35:41;9.02;;;2.75;;
25073;SDS011;13066;52.042;5.648;2023-04-03T04:38:10;9.23;;;3.53;;
25073;SDS011;13066;52.042;5.648;2023-04-03T04:40:40;6.43;;;2.30;;
25073;SDS011;13066;52.042;5.648;2023-04-03T04:43:08;8.82;;;2.40;;
25073;SDS011;13066;52.042;5.648;2023-04-03T04:45:37;5.25;;;2.20;;
25073;SDS011;13066;52.042;5.648;2023-04-03T04:48:05;10.13;;;2.90;;
25073;SDS011;13066;52.042;5.648;2023-04-03T04:50:33;6.47;;;2.67;;
25073;SDS011;13066;52.042;5.648;2023-04-03T04:53:02;6.10;;;2.00;;
25073;SDS011;13066;52.042;5.648;2023-04-03T04:55:30;7.85;;;2.17;;
25073;SDS011;13066;52.042;5.648;2023-04-03T04:57:59;4.25;;;2.15;;
25073;SDS011;13066;52.042;5.648;2023-04-03T05:00:28;5.45;;;2.15;;
25073;SDS011;13066;52.042;5.648;2023-04-03T05:02:56;7.25;;;2.35;;
25073;SDS011;13066;52.042;5.648;2023-04-03T05:05:24;8.60;;;2.42;;
25073;SDS011;13066;52.042;5.648;2023-04-03T05:07:51;6.47;;;2.42;;
25073;SDS011;13066;52.042;5.648;2023-04-03T05:10:19;9.07;;;2.35;;
25073;SDS011;13066;52.042;5.648;2023-04-03T05:12:48;12.73;;;2.80;;
25073;SDS011;13066;52.042;5.648;2023-04-03T05:15:17;12.32;;;2.58;;
25073;SDS011;13066;52.042;5.648;2023-04-03T05:17:46;11.45;;;2.40;;
25073;SDS011;13066;52.042;5.648;2023-04-03T05:20:14;12.65;;;2.67;;
25073;SDS011;13066;52.042;5.648;2023-04-03T05:22:44;8.77;;;2.78;;
25073;SDS011;13066;52.042;5.648;2023-04-03T05:25:12;7.35;;;2.30;;
25073;SDS011;13066;52.042;5.648;2023-04-03T05:27:42;12.68;;;2.55;;
25073;SDS011;13066;52.042;5.648;2023-04-03T05:30:11;4.30;;;2.08;;
25073;SDS011;13066;52.042;5.648;2023-04-03T05:32:42;7.05;;;2.85;;
25073;SDS011;13066;52.042;5.648;2023-04-03T05:35:16;7.80;;;2.65;;
25073;SDS011;13066;52.042;5.648;2023-04-03T05:37:46;6.90;;;2.40;;
25073;SDS011;13066;52.042;5.648;2023-04-03T05:40:15;9.10;;;2.78;;
25073;SDS011;13066;52.042;5.648;2023-04-03T05:42:46;10.68;;;3.00;;
25073;SDS011;13066;52.042;5.648;2023-04-03T05:45:15;7.25;;;2.70;;
25073;SDS011;13066;52.042;5.648;2023-04-03T05:47:45;8.00;;;2.45;;
25073;SDS011;13066;52.042;5.648;2023-04-03T05:50:14;11.48;;;2.33;;
25073;SDS011;13066;52.042;5.648;2023-04-03T05:52:43;12.88;;;3.30;;
25073;SDS011;13066;52.042;5.648;2023-04-03T05:55:13;7.32;;;2.78;;
25073;SDS011;13066;52.042;5.648;2023-04-03T05:57:41;6.82;;;2.85;;
25073;SDS011;13066;52.042;5.648;2023-04-03T06:00:12;4.93;;;2.20;;
25073;SDS011;13066;52.042;5.648;2023-04-03T06:02:49;7.53;;;2.55;;
25073;SDS011;13066;52.042;5.648;2023-04-03T06:05:22;7.78;;;2.70;;
25073;SDS011;13066;52.042;5.648;2023-04-03T06:07:50;9.88;;;2.63;;
25073;SDS011;13066;52.042;5.648;2023-04-03T06:10:18;8.65;;;2.50;;
25073;SDS011;13066;52.042;5.648;2023-04-03T06:12:46;10.70;;;2.33;;
25073;SDS011;13066;52.042;5.648;2023-04-03T06:15:14;11.13;;;2.00;;
25073;SDS011;13066;52.042;5.648;2023-04-03T06:17:43;6.05;;;2.20;;
25073;SDS011;13066;52.042;5.648;2023-04-03T06:20:13;6.68;;;2.30;;
25073;SDS011;13066;52.042;5.648;2023-04-03T06:22:42;9.05;;;2.05;;
25073;SDS011;13066;52.042;5.648;2023-04-03T06:25:10;10.55;;;2.70;;
25073;SDS011;13066;52.042;5.648;2023-04-03T06:27:39;7.25;;;2.15;;
25073;SDS011;13066;52.042;5.648;2023-04-03T06:30:07;5.43;;;2.35;;
25073;SDS011;13066;52.042;5.648;2023-04-03T06:32:35;9.15;;;2.40;;
25073;SDS011;13066;52.042;5.648;2023-04-03T06:35:04;5.63;;;2.65;;
25073;SDS011;13066;52.042;5.648;2023-04-03T06:37:34;5.70;;;2.22;;
25073;SDS011;13066;52.042;5.648;2023-04-03T06:40:02;7.97;;;2.50;;
25073;SDS011;13066;52.042;5.648;2023-04-03T06:42:31;9.00;;;1.98;;
25073;SDS011;13066;52.042;5.648;2023-04-03T06:45:07;6.45;;;2.28;;
25073;SDS011;13066;52.042;5.648;2023-04-03T06:47:36;4.53;;;1.98;;
25073;SDS011;13066;52.042;5.648;2023-04-03T06:50:05;14.15;;;2.67;;
25073;SDS011;13066;52.042;5.648;2023-04-03T06:52:36;6.05;;;2.45;;
25073;SDS011;13066;52.042;5.648;2023-04-03T06:55:06;7.47;;;2.28;;
25073;SDS011;13066;52.042;5.648;2023-04-03T06:57:35;7.35;;;2.38;;
25073;SDS011;13066;52.042;5.648;2023-04-03T07:00:04;6.70;;;2.50;;
25073;SDS011;13066;52.042;5.648;2023-04-03T07:02:33;9.50;;;2.33;;
25073;SDS011;13066;52.042;5.648;2023-04-03T07:05:01;5.40;;;2.20;;
25073;SDS011;13066;52.042;5.648;2023-04-03T07:07:30;9.98;;;2.20;;
25073;SDS011;13066;52.042;5.648;2023-04-03T07:10:00;7.07;;;1.98;;
25073;SDS011;13066;52.042;5.648;2023-04-03T07:12:29;6.57;;;2.20;;
25073;SDS011;13066;52.042;5.648;2023-04-03T07:14:57;6.93;;;2.40;;
25073;SDS011;13066;52.042;5.648;2023-04-03T07:17:25;6.30;;;2.20;;
25073;SDS011;13066;52.042;5.648;2023-04-03T07:19:53;4.63;;;2.05;;
25073;SDS011;13066;52.042;5.648;2023-04-03T07:22:21;5.25;;;1.77;;
25073;SDS011;13066;52.042;5.648;2023-04-03T07:24:49;4.30;;;1.88;;
25073;SDS011;13066;52.042;5.648;2023-04-03T07:27:18;8.38;;;2.25;;
25073;SDS011;13066;52.042;5.648;2023-04-03T07:29:47;7.68;;;2.00;;
25073;SDS011;13066;52.042;5.648;2023-04-03T07:32:16;6.97;;;2.28;;
25073;SDS011;13066;52.042;5.648;2023-04-03T07:34:44;8.32;;;1.92;;
25073;SDS011;13066;52.042;5.648;2023-04-03T07:37:12;6.13;;;2.40;;
25073;SDS011;13066;52.042;5.648;2023-04-03T07:39:39;5.30;;;1.73;;
25073;SDS011;13066;52.042;5.648;2023-04-03T07:42:11;9.57;;;2.22;;
25073;SDS011;13066;52.042;5.648;2023-04-03T07:44:40;7.55;;;2.03;;
25073;SDS011;13066;52.042;5.648;2023-04-03T07:47:09;10.73;;;1.90;;
25073;SDS011;13066;52.042;5.648;2023-04-03T07:49:36;3.45;;;1.38;;
25073;SDS011;13066;52.042;5.648;2023-04-03T07:52:07;6.25;;;2.10;;
25073;SDS011;13066;52.042;5.648;2023-04-03T07:54:35;6.28;;;1.98;;
25073;SDS011;13066;52.042;5.648;2023-04-03T07:57:03;5.40;;;1.83;;
25073;SDS011;13066;52.042;5.648;2023-04-03T07:59:31;4.70;;;1.98;;
25073;SDS011;13066;52.042;5.648;2023-04-03T08:02:01;8.93;;;1.80;;
25073;SDS011;13066;52.042;5.648;2023-04-03T08:04:31;4.43;;;1.80;;
25073;SDS011;13066;52.042;5.648;2023-04-03T08:06:59;5.50;;;1.60;;
25073;SDS011;13066;52.042;5.648;2023-04-03T08:09:27;3.90;;;1.42;;
25073;SDS011;13066;52.042;5.648;2023-04-03T08:11:55;5.82;;;1.90;;
25073;SDS011;13066;52.042;5.648;2023-04-03T08:14:23;5.25;;;1.80;;
25073;SDS011;13066;52.042;5.648;2023-04-03T08:16:51;6.30;;;1.83;;
25073;SDS011;13066;52.042;5.648;2023-04-03T08:19:20;5.65;;;1.75;;
25073;SDS011;13066;52.042;5.648;2023-04-03T08:21:52;6.60;;;1.65;;
25073;SDS011;13066;52.042;5.648;2023-04-03T08:24:20;10.10;;;1.92;;
25073;SDS011;13066;52.042;5.648;2023-04-03T08:26:48;3.35;;;1.10;;
25073;SDS011;13066;52.042;5.648;2023-04-03T08:29:16;4.53;;;1.50;;
25073;SDS011;13066;52.042;5.648;2023-04-03T08:31:45;4.35;;;1.38;;
25073;SDS011;13066;52.042;5.648;2023-04-03T08:34:12;7.45;;;1.70;;
25073;SDS011;13066;52.042;5.648;2023-04-03T08:36:43;2.55;;;1.33;;
25073;SDS011;13066;52.042;5.648;2023-04-03T08:39:11;3.10;;;1.00;;
25073;SDS011;13066;52.042;5.648;2023-04-03T08:41:40;4.47;;;1.70;;
25073;SDS011;13066;52.042;5.648;2023-04-03T08:44:17;3.60;;;1.38;;
25073;SDS011;13066;52.042;5.648;2023-04-03T08:46:56;4.20;;;1.33;;
25073;SDS011;13066;52.042;5.648;2023-04-03T08:49:31;4.25;;;1.35;;
25073;SDS011;13066;52.042;5.648;2023-04-03T08:52:04;3.63;;;1.10;;
25073;SDS011;13066;52.042;5.648;2023-04-03T08:54:33;3.80;;;1.23;;
25073;SDS011;13066;52.042;5.648;2023-04-03T08:57:03;2.38;;;0.90;;
25073;SDS011;13066;52.042;5.648;2023-04-03T08:59:33;1.85;;;1.05;;
25073;SDS011;13066;52.042;5.648;2023-04-03T09:02:04;1.85;;;0.93;;
25073;SDS011;13066;52.042;5.648;2023-04-03T09:04:48;3.00;;;1.00;;
25073;SDS011;13066;52.042;5.648;2023-04-03T09:07:19;3.25;;;0.80;;
25073;SDS011;13066;52.042;5.648;2023-04-03T09:09:50;3.15;;;0.90;;
25073;SDS011;13066;52.042;5.648;2023-04-03T09:12:21;2.33;;;0.80;;
25073;SDS011;13066;52.042;5.648;2023-04-03T09:14:55;1.48;;;0.68;;
25073;SDS011;13066;52.042;5.648;2023-04-03T09:17:30;1.48;;;0.80;;
25073;SDS011;13066;52.042;5.648;2023-04-03T09:20:08;1.50;;;0.80;;
25073;SDS011;13066;52.042;5.648;2023-04-03T09:22:46;4.57;;;0.75;;
25073;SDS011;13066;52.042;5.648;2023-04-03T09:25:18;2.00;;;0.70;;
25073;SDS011;13066;52.042;5.648;2023-04-03T09:27:48;1.25;;;0.90;;
25073;SDS011;13066;52.042;5.648;2023-04-03T09:30:17;3.00;;;0.80;;
25073;SDS011;13066;52.042;5.648;2023-04-03T09:32:49;2.53;;;0.80;;
25073;SDS011;13066;52.042;5.648;2023-04-03T09:35:20;0.57;;;0.52;;
25073;SDS011;13066;52.042;5.648;2023-04-03T09:38:20;2.28;;;0.73;;
25073;SDS011;13066;52.042;5.648;2023-04-03T09:40:49;3.72;;;0.70;;
25073;SDS011;13066;52.042;5.648;2023-04-03T09:43:23;0.60;;;0.60;;
25073;SDS011;13066;52.042;5.648;2023-04-03T09:45:54;1.05;;;0.80;;
25073;SDS011;13066;52.042;5.648;2023-04-03T09:48:23;1.95;;;0.52;;
25073;SDS011;13066;52.042;5.648;2023-04-03T09:50:57;2.75;;;0.70;;
25073;SDS011;13066;52.042;5.648;2023-04-03T09:53:29;3.85;;;0.80;;
25073;SDS011;13066;52.042;5.648;2023-04-03T09:55:59;1.55;;;0.65;;
25073;SDS011;13066;52.042;5.648;2023-04-03T09:58:30;1.00;;;0.50;;
25073;SDS011;13066;52.042;5.648;2023-04-03T10:01:20;1.17;;;0.80;;
25073;SDS011;13066;52.042;5.648;2023-04-03T10:04:03;1.63;;;0.73;;
25073;SDS011;13066;52.042;5.648;2023-04-03T10:06:36;2.22;;;0.65;;
25073;SDS011;13066;52.042;5.648;2023-04-03T10:09:14;1.05;;;0.60;;
25073;SDS011;13066;52.042;5.648;2023-04-03T10:11:58;1.35;;;0.70;;
25073;SDS011;13066;52.042;5.648;2023-04-03T10:14:28;1.50;;;0.70;;
25073;SDS011;13066;52.042;5.648;2023-04-03T10:16:59;1.70;;;0.43;;
25073;SDS011;13066;52.042;5.648;2023-04-03T10:19:33;1.55;;;0.43;;
25073;SDS011;13066;52.042;5.648;2023-04-03T10:22:03;2.75;;;0.60;;
25073;SDS011;13066;52.042;5.648;2023-04-03T10:24:39;1.02;;;0.80;;
25073;SDS011;13066;52.042;5.648;2023-04-03T10:27:13;1.98;;;0.80;;
25073;SDS011;13066;52.042;5.648;2023-04-03T10:29:46;3.97;;;0.80;;
25073;SDS011;13066;52.042;5.648;2023-04-03T10:32:22;1.98;;;0.77;;
25073;SDS011;13066;52.042;5.648;2023-04-03T10:34:56;3.22;;;1.15;;
25073;SDS011;13066;52.042;5.648;2023-04-03T10:37:34;2.03;;;0.90;;
25073;SDS011;13066;52.042;5.648;2023-04-03T10:40:13;1.95;;;0.98;;
25073;SDS011;13066;52.042;5.648;2023-04-03T10:42:46;1.88;;;0.80;;
25073;SDS011;13066;52.042;5.648;2023-04-03T10:45:19;1.52;;;0.90;;
25073;SDS011;13066;52.042;5.648;2023-04-03T10:47:51;2.35;;;1.00;;
25073;SDS011;13066;52.042;5.648;2023-04-03T10:50:27;3.10;;;1.05;;
25073;SDS011;13066;52.042;5.648;2023-04-03T10:53:01;1.17;;;0.90;;
25073;SDS011;13066;52.042;5.648;2023-04-03T10:55:35;3.72;;;1.20;;
25073;SDS011;13066;52.042;5.648;2023-04-03T10:58:05;3.88;;;0.90;;
25073;SDS011;13066;52.042;5.648;2023-04-03T11:00:35;5.05;;;1.08;;
25073;SDS011;13066;52.042;5.648;2023-04-03T11:03:07;2.97;;;0.90;;
25073;SDS011;13066;52.042;5.648;2023-04-03T11:05:40;4.03;;;1.27;;
25073;SDS011;13066;52.042;5.648;2023-04-03T11:08:13;3.67;;;1.35;;
25073;SDS011;13066;52.042;5.648;2023-04-03T11:10:49;1.90;;;1.00;;
25073;SDS011;13066;52.042;5.648;2023-04-03T11:13:19;2.47;;;1.00;;
25073;SDS011;13066;52.042;5.648;2023-04-03T11:15:49;2.47;;;1.30;;
25073;SDS011;13066;52.042;5.648;2023-04-03T11:18:21;2.25;;;1.00;;
25073;SDS011;13066;52.042;5.648;2023-04-03T11:20:53;2.85;;;1.20;;
25073;SDS011;13066;52.042;5.648;2023-04-03T11:23:28;5.95;;;1.13;;
25073;SDS011;13066;52.042;5.648;2023-04-03T11:26:15;2.17;;;1.00;;
25073;SDS011;13066;52.042;5.648;2023-04-03T11:28:45;4.30;;;1.27;;
25073;SDS011;13066;52.042;5.648;2023-04-03T11:31:16;1.45;;;0.80;;
25073;SDS011;13066;52.042;5.648;2023-04-03T11:33:55;4.00;;;1.13;;
25073;SDS011;13066;52.042;5.648;2023-04-03T11:36:30;1.02;;;0.85;;
25073;SDS011;13066;52.042;5.648;2023-04-03T11:39:14;3.53;;;0.90;;
25073;SDS011;13066;52.042;5.648;2023-04-03T11:41:48;1.80;;;0.90;;
25073;SDS011;13066;52.042;5.648;2023-04-03T11:44:29;2.13;;;0.90;;
25073;SDS011;13066;52.042;5.648;2023-04-03T11:47:00;3.17;;;1.00;;
25073;SDS011;13066;52.042;5.648;2023-04-03T12:01:46;3.42;;;1.10;;
25073;SDS011;13066;52.042;5.648;2023-04-03T12:04:16;1.42;;;0.70;;
25073;SDS011;13066;52.042;5.648;2023-04-03T12:06:50;2.63;;;1.23;;
25073;SDS011;13066;52.042;5.648;2023-04-03T12:09:25;3.15;;;0.90;;
25073;SDS011;13066;52.042;5.648;2023-04-03T12:12:00;1.55;;;1.02;;
25073;SDS011;13066;52.042;5.648;2023-04-03T12:14:30;2.92;;;1.20;;
25073;SDS011;13066;52.042;5.648;2023-04-03T12:16:58;2.85;;;0.90;;
25073;SDS011;13066;52.042;5.648;2023-04-03T12:19:33;2.33;;;1.17;;
25073;SDS011;13066;52.042;5.648;2023-04-03T12:22:13;2.15;;;1.00;;
25073;SDS011;13066;52.042;5.648;2023-04-03T12:24:42;3.08;;;0.80;;
25073;SDS011;13066;52.042;5.648;2023-04-03T12:27:24;1.08;;;0.90;;
25073;SDS011;13066;52.042;5.648;2023-04-03T12:30:07;2.08;;;1.20;;
25073;SDS011;13066;52.042;5.648;2023-04-03T12:35:43;2.05;;;1.02;;
25073;SDS011;13066;52.042;5.648;2023-04-03T12:38:20;2.45;;;1.10;;
25073;SDS011;13066;52.042;5.648;2023-04-03T12:40:57;3.50;;;1.23;;
25073;SDS011;13066;52.042;5.648;2023-04-03T12:46:21;3.97;;;1.38;;
25073;SDS011;13066;52.042;5.648;2023-04-03T12:48:51;4.93;;;1.35;;
25073;SDS011;13066;52.042;5.648;2023-04-03T12:51:22;3.63;;;1.10;;
25073;SDS011;13066;52.042;5.648;2023-04-03T12:53:56;2.10;;;1.08;;
25073;SDS011;13066;52.042;5.648;2023-04-03T12:56:28;2.60;;;0.95;;
25073;SDS011;13066;52.042;5.648;2023-04-03T12:59:12;3.65;;;1.10;;
25073;SDS011;13066;52.042;5.648;2023-04-03T13:04:13;2.60;;;1.08;;
25073;SDS011;13066;52.042;5.648;2023-04-03T13:06:41;4.25;;;1.40;;
25073;SDS011;13066;52.042;5.648;2023-04-03T13:09:18;5.97;;;1.30;;
25073;SDS011;13066;52.042;5.648;2023-04-03T13:11:49;3.13;;;1.27;;
25073;SDS011;13066;52.042;5.648;2023-04-03T13:14:19;2.05;;;1.20;;
25073;SDS011;13066;52.042;5.648;2023-04-03T13:16:53;1.90;;;0.98;;
25073;SDS011;13066;52.042;5.648;2023-04-03T13:19:23;4.50;;;1.35;;
25073;SDS011;13066;52.042;5.648;2023-04-03T13:21:56;3.45;;;1.33;;
25073;SDS011;13066;52.042;5.648;2023-04-03T13:24:27;3.17;;;1.30;;
25073;SDS011;13066;52.042;5.648;2023-04-03T13:26:56;3.72;;;1.30;;
25073;SDS011;13066;52.042;5.648;2023-04-03T13:29:25;1.80;;;0.90;;
25073;SDS011;13066;52.042;5.648;2023-04-03T13:31:58;3.70;;;1.63;;
25073;SDS011;13066;52.042;5.648;2023-04-03T13:34:28;4.93;;;1.20;;
25073;SDS011;13066;52.042;5.648;2023-04-03T13:36:59;3.05;;;1.35;;
25073;SDS011;13066;52.042;5.648;2023-04-03T13:39:30;4.50;;;1.40;;
25073;SDS011;13066;52.042;5.648;2023-04-03T13:42:01;3.50;;;1.27;;
25073;SDS011;13066;52.042;5.648;2023-04-03T13:44:32;3.10;;;1.00;;
25073;SDS011;13066;52.042;5.648;2023-04-03T13:47:15;4.40;;;1.42;;
25073;SDS011;13066;52.042;5.648;2023-04-03T13:49:46;3.20;;;1.10;;
25073;SDS011;13066;52.042;5.648;2023-04-03T13:52:28;3.42;;;1.40;;
25073;SDS011;13066;52.042;5.648;2023-04-03T13:54:59;4.00;;;1.20;;
25073;SDS011;13066;52.042;5.648;2023-04-03T13:57:33;2.70;;;1.13;;
25073;SDS011;13066;52.042;5.648;2023-04-03T14:02:50;5.45;;;1.45;;
25073;SDS011;13066;52.042;5.648;2023-04-03T14:05:23;2.92;;;1.55;;
25073;SDS011;13066;52.042;5.648;2023-04-03T14:07:52;2.92;;;1.40;;
25073;SDS011;13066;52.042;5.648;2023-04-03T14:10:22;4.40;;;1.40;;
25073;SDS011;13066;52.042;5.648;2023-04-03T14:12:50;5.13;;;1.45;;
25073;SDS011;13066;52.042;5.648;2023-04-03T14:15:20;2.90;;;1.45;;
25073;SDS011;13066;52.042;5.648;2023-04-03T14:17:52;3.15;;;1.30;;
25073;SDS011;13066;52.042;5.648;2023-04-03T14:20:23;3.90;;;1.40;;
25073;SDS011;13066;52.042;5.648;2023-04-03T14:22:53;2.72;;;1.45;;
25073;SDS011;13066;52.042;5.648;2023-04-03T14:25:21;5.07;;;2.35;;
25073;SDS011;13066;52.042;5.648;2023-04-03T14:27:50;10.60;;;2.75;;
25073;SDS011;13066;52.042;5.648;2023-04-03T14:30:21;10.77;;;3.22;;
25073;SDS011;13066;52.042;5.648;2023-04-03T14:32:51;3.95;;;1.98;;
25073;SDS011;13066;52.042;5.648;2023-04-03T14:35:19;6.35;;;1.83;;
25073;SDS011;13066;52.042;5.648;2023-04-03T14:37:47;5.80;;;2.00;;
25073;SDS011;13066;52.042;5.648;2023-04-03T14:40:17;4.38;;;1.50;;
25073;SDS011;13066;52.042;5.648;2023-04-03T14:42:47;11.13;;;1.70;;
25073;SDS011;13066;52.042;5.648;2023-04-03T14:45:15;2.92;;;1.27;;
25073;SDS011;13066;52.042;5.648;2023-04-03T14:47:44;4.32;;;1.38;;
25073;SDS011;13066;52.042;5.648;2023-04-03T14:50:16;3.00;;;1.42;;
25073;SDS011;13066;52.042;5.648;2023-04-03T14:52:47;6.10;;;1.38;;
25073;SDS011;13066;52.042;5.648;2023-04-03T14:55:15;3.60;;;1.48;;
25073;SDS011;13066;52.042;5.648;2023-04-03T14:57:44;6.22;;;1.60;;
25073;SDS011;13066;52.042;5.648;2023-04-03T15:00:12;6.43;;;1.45;;
25073;SDS011;13066;52.042;5.648;2023-04-03T15:02:42;2.67;;;1.45;;
25073;SDS011;13066;52.042;5.648;2023-04-03T15:05:13;3.28;;;1.20;;
25073;SDS011;13066;52.042;5.648;2023-04-03T15:07:44;5.68;;;1.58;;
25073;SDS011;13066;52.042;5.648;2023-04-03T15:10:16;3.30;;;1.40;;
25073;SDS011;13066;52.042;5.648;2023-04-03T15:12:46;3.30;;;1.60;;
25073;SDS011;13066;52.042;5.648;2023-04-03T15:15:15;2.50;;;1.38;;
25073;SDS011;13066;52.042;5.648;2023-04-03T15:17:47;2.88;;;1.42;;
25073;SDS011;13066;52.042;5.648;2023-04-03T15:22:51;4.78;;;1.52;;
25073;SDS011;13066;52.042;5.648;2023-04-03T15:25:19;5.03;;;1.45;;
25073;SDS011;13066;52.042;5.648;2023-04-03T15:27:47;6.53;;;2.17;;
25073;SDS011;13066;52.042;5.648;2023-04-03T15:30:16;4.78;;;1.98;;
25073;SDS011;13066;52.042;5.648;2023-04-03T15:32:45;3.35;;;1.40;;
25073;SDS011;13066;52.042;5.648;2023-04-03T15:35:14;5.45;;;1.92;;